Time;durP1;ratioP1;P1;durP2;ratioP2;P2;SDS_P1;SDS_P2;PMS_P1;PMS_P2;Temp;Humidity;BMP_temperature;BMP_pressure;BME280_temperature;BME280_humidity;BME280_pressure;Samples;Min_cycle;Max_cycle;Signal;HPM_P1;HPM_P2
2022/12/18 00:01:31;;;;;;;;;;;;;;;3.71;87.74;101840.13;7353012;19;19922;-65
2022/12/18 00:03:58;;;;;;;;;;;;;;;3.71;87.66;101834.94;7353568;19;20033;-65
2022/12/18 00:06:26;;;;;;;;;;;;;;;3.71;87.80;101834.09;7355484;19;19961;-65
2022/12/18 00:08:53;;;;;;;;;;;;;;;3.71;87.80;101840.13;7362455;19;19934;-64
2022/12/18 00:11:22;;;;;;;;;;;;;;;3.68;87.98;101834.28;7362692;19;20352;-65
2022/12/18 00:13:48;;;;;;;;;;;;;;;3.66;88.01;101823.94;7362090;19;19923;-66
2022/12/18 00:16:19;;;;;;;;;;;;;;;3.67;88.59;101828.22;7361214;19;19922;-65
2022/12/18 00:18:47;;;;;;;;;;;;;;;3.67;88.93;101828.22;7359429;19;19923;-66
2022/12/18 00:21:14;;;;;;;;;;;;;;;3.63;88.01;101812.88;7359184;19;19922;-66
2022/12/18 00:23:42;;;;;;;;;;;;;;;3.62;88.19;101806.81;7360040;19;19934;-65
2022/12/18 00:26:11;;;;;;;;;;;;;;;3.62;88.51;101806.81;7360085;19;19951;-66
2022/12/18 00:28:38;;;;;;;;;;;;;;;3.64;88.54;101812.78;7359262;19;19919;-65
2022/12/18 00:31:06;;;;;;;;;;;;;;;3.61;88.25;101804.28;7358143;19;20386;-66
2022/12/18 00:33:34;;;;;;;;;;;;;;;3.59;88.26;101796.59;7358130;19;20241;-67
2022/12/18 00:36:01;;;;;;;;;;;;;;;3.57;88.29;101806.22;7357429;19;20383;-65
2022/12/18 00:38:28;;;;;;;;;;;;;;;3.53;88.23;101804.72;7359296;19;19922;-65
2022/12/18 00:40:55;;;;;;;;;;;;;;;3.51;88.34;101800.53;7358935;19;19967;-65
2022/12/18 00:43:22;;;;;;;;;;;;;;;3.50;88.62;101793.66;7360218;19;21154;-64
2022/12/18 00:45:49;;;;;;;;;;;;;;;3.50;88.45;101788.47;7361813;19;19927;-65
2022/12/18 00:48:16;;;;;;;;;;;;;;;3.51;88.88;101798.75;7360169;19;19998;-66
2022/12/18 00:50:43;;;;;;;;;;;;;;;3.51;88.69;101796.16;7359598;19;20693;-65
2022/12/18 00:53:10;;;;;;;;;;;;;;;3.53;88.84;101798.69;7358695;19;19933;-65
2022/12/18 00:55:37;;;;;;;;;;;;;;;3.52;88.46;101804.81;7361636;19;19927;-65
2022/12/18 00:58:04;;;;;;;;;;;;;;;3.48;88.00;101800.69;7359035;19;19926;-67
2022/12/18 01:00:31;;;;;;;;;;;;;;;3.47;88.12;101793.81;7360277;19;20755;-65
2022/12/18 01:02:58;;;;;;;;;;;;;;;3.48;88.27;101798.94;7358677;19;20417;-66
2022/12/18 01:05:25;;;;;;;;;;;;;;;3.46;87.96;101792.97;7358163;19;20006;-65
2022/12/18 01:07:52;;;;;;;;;;;;;;;3.47;88.21;101788.59;7356188;19;19923;-65
2022/12/18 01:10:19;;;;;;;;;;;;;;;3.46;88.34;101790.38;7359528;19;20428;-65
2022/12/18 01:12:46;;;;;;;;;;;;;;;3.44;88.23;101798.28;7358806;19;21541;-65
2022/12/18 01:15:13;;;;;;;;;;;;;;;3.43;87.73;101790.53;7360751;19;19914;-65
2022/12/18 01:17:40;;;;;;;;;;;;;;;3.45;87.67;101780.91;7356859;19;19915;-64
2022/12/18 01:20:08;;;;;;;;;;;;;;;3.45;87.78;101780.91;7358419;19;20331;-67
2022/12/18 01:22:35;;;;;;;;;;;;;;;3.45;87.67;101779.13;7355415;19;19929;-66
2022/12/18 01:25:03;;;;;;;;;;;;;;;3.45;88.12;101773.91;7359077;19;19923;-67
2022/12/18 01:27:31;;;;;;;;;;;;;;;3.49;88.38;101764.22;7359774;19;20598;-65
2022/12/18 01:29:58;;;;;;;;;;;;;;;3.52;89.22;101765.78;7358339;19;20089;-65
2022/12/18 01:32:24;;;;;;;;;;;;;;;3.52;88.90;101765.78;7358300;19;20297;-66
2022/12/18 01:34:51;;;;;;;;;;;;;;;3.50;88.92;101749.44;7360197;19;19926;-65
2022/12/18 01:37:18;;;;;;;;;;;;;;;3.48;88.91;101749.53;7357407;19;19926;-67
2022/12/18 01:39:45;;;;;;;;;;;;;;;3.47;88.57;101747.84;7358755;19;20475;-66
2022/12/18 01:42:13;;;;;;;;;;;;;;;3.47;88.57;101739.19;7358985;19;20344;-67
2022/12/18 01:44:43;;;;;;;;;;;;;;;3.45;88.52;101734.09;7357139;19;19938;-67
2022/12/18 01:47:14;;;;;;;;;;;;;;;3.44;87.82;101732.41;7359736;19;20349;-66
2022/12/18 01:49:41;;;;;;;;;;;;;;;3.43;87.90;101733.31;7359335;19;19934;-65
2022/12/18 01:52:08;;;;;;;;;;;;;;;3.42;88.04;101722.09;7357947;19;19929;-66
2022/12/18 01:54:35;;;;;;;;;;;;;;;3.42;88.08;101723.84;7356358;19;20015;-64
2022/12/18 01:57:02;;;;;;;;;;;;;;;3.42;88.07;101731.66;7359934;19;19926;-65
2022/12/18 01:59:32;;;;;;;;;;;;;;;3.40;88.18;101726.50;7357687;19;19963;-65
2022/12/18 02:01:59;;;;;;;;;;;;;;;3.36;87.76;101727.63;7356057;19;19922;-65
2022/12/18 02:04:27;;;;;;;;;;;;;;;3.36;87.88;101737.19;7358781;19;19919;-66
2022/12/18 02:06:57;;;;;;;;;;;;;;;3.38;88.47;101736.19;7354183;19;19934;-66
2022/12/18 02:09:29;;;;;;;;;;;;;;;3.36;87.88;101738.03;7357869;19;19934;-64
2022/12/18 02:12:02;;;;;;;;;;;;;;;3.35;87.42;101740.72;7357056;19;19970;-65
2022/12/18 02:14:30;;;;;;;;;;;;;;;3.33;87.59;101740.81;7355910;19;20439;-65
2022/12/18 02:16:58;;;;;;;;;;;;;;;3.33;87.65;101743.41;7355691;19;19925;-64
2022/12/18 02:19:26;;;;;;;;;;;;;;;3.34;87.67;101749.44;7341395;19;20215;-65
2022/12/18 02:22:01;;;;;;;;;;;;;;;3.34;87.70;101747.69;7338728;19;20011;-65
2022/12/18 02:24:31;;;;;;;;;;;;;;;3.34;87.71;101757.25;7350587;19;19948;-65
2022/12/18 02:26:59;;;;;;;;;;;;;;;3.34;87.87;101758.09;7352198;19;20309;-65
2022/12/18 02:29:29;;;;;;;;;;;;;;;3.35;88.58;101749.34;7347829;19;19926;-65
2022/12/18 02:31:58;;;;;;;;;;;;;;;3.34;88.76;101750.28;7346689;19;20551;-65
2022/12/18 02:34:28;;;;;;;;;;;;;;;3.35;89.04;101759.75;7344771;19;19919;-65
2022/12/18 02:36:56;;;;;;;;;;;;;;;3.33;88.44;101755.56;7347220;19;20352;-65
2022/12/18 02:39:25;;;;;;;;;;;;;;;3.29;88.15;101761.84;7352327;19;19927;-67
2022/12/18 02:41:52;;;;;;;;;;;;;;;3.30;88.01;101771.34;7352952;19;20111;-65
2022/12/18 02:44:19;;;;;;;;;;;;;;;3.29;87.87;101778.28;7348114;19;19923;-64
2022/12/18 02:46:50;;;;;;;;;;;;;;;3.29;88.06;101774.84;7340692;19;19930;-64
2022/12/18 02:49:20;;;;;;;;;;;;;;;3.29;87.91;101778.28;7348144;19;20298;-64
2022/12/18 02:51:49;;;;;;;;;;;;;;;3.29;87.70;101778.28;7346315;19;20511;-64
2022/12/18 02:54:24;;;;;;;;;;;;;;;3.30;88.05;101789.53;7350046;19;19923;-64
2022/12/18 02:56:53;;;;;;;;;;;;;;;3.28;87.64;101780.97;7346506;19;19922;-64
2022/12/18 02:59:24;;;;;;;;;;;;;;;3.26;86.95;101782.81;7348020;19;20500;-67
2022/12/18 03:01:57;;;;;;;;;;;;;;;3.28;87.41;101775.78;7351918;19;20345;-65
2022/12/18 03:04:28;;;;;;;;;;;;;;;3.27;87.01;101771.50;7354822;19;19929;-65
2022/12/18 03:06:56;;;;;;;;;;;;;;;3.26;87.11;101770.66;7350762;19;20479;-65
2022/12/18 03:09:26;;;;;;;;;;;;;;;3.27;87.46;101763.69;7353542;19;20578;-65
2022/12/18 03:14:28;;;;;;;;;;;;;;;3.29;87.58;101748.84;7351090;19;20276;-66
2022/12/18 03:16:57;;;;;;;;;;;;;;;3.31;87.63;101734.00;7353486;19;19926;-65
2022/12/18 03:19:27;;;;;;;;;;;;;;;3.36;87.61;101732.81;7353829;19;19930;-66
2022/12/18 03:21:56;;;;;;;;;;;;;;;3.36;87.10;101737.19;7349560;19;19937;-66
2022/12/18 03:24:24;;;;;;;;;;;;;;;3.36;87.12;101731.97;7350752;19;20394;-67
2022/12/18 03:26:54;;;;;;;;;;;;;;;3.36;87.67;101730.22;7354732;19;19922;-65
2022/12/18 03:29:24;;;;;;;;;;;;;;;3.37;86.99;101736.25;7354477;19;19915;-65
2022/12/18 03:31:54;;;;;;;;;;;;;;;3.37;86.23;101729.28;7351476;19;20498;-66
2022/12/18 03:34:25;;;;;;;;;;;;;;;3.39;86.81;101724.03;7354013;19;20515;-66
2022/12/18 03:36:52;;;;;;;;;;;;;;;3.43;87.13;101730.72;7351107;19;20467;-66
2022/12/18 03:39:19;;;;;;;;;;;;;;;3.43;86.85;101725.53;7355573;19;19927;-65
2022/12/18 03:41:49;;;;;;;;;;;;;;;3.44;86.84;101717.66;7352100;19;19991;-65
2022/12/18 03:44:16;;;;;;;;;;;;;;;3.42;86.90;101703.88;7354049;19;20030;-65
2022/12/18 03:46:46;;;;;;;;;;;;;;;3.45;87.15;101721.09;7332966;19;19926;-65
2022/12/18 03:49:19;;;;;;;;;;;;;;;3.44;87.07;101722.00;7344174;19;19926;-65
2022/12/18 03:51:49;;;;;;;;;;;;;;;3.43;86.42;101730.72;7347688;19;19918;-66
2022/12/18 03:54:18;;;;;;;;;;;;;;;3.43;86.47;101715.97;7343183;19;19923;-66
2022/12/18 03:59:56;;;;;;;;;;;;;;;3.39;86.15;101704.06;7350331;19;20038;-65
2022/12/18 04:02:24;;;;;;;;;;;;;;;3.38;85.85;101707.56;7349608;19;20435;-67
2022/12/18 04:04:53;;;;;;;;;;;;;;;3.36;85.84;101698.16;7353516;19;19915;-64
2022/12/18 04:07:20;;;;;;;;;;;;;;;3.33;85.61;101695.75;7353823;19;19930;-66
2022/12/18 04:09:48;;;;;;;;;;;;;;;3.31;86.04;101700.19;7351798;19;21195;-66
2022/12/18 04:12:15;;;;;;;;;;;;;;;3.33;86.06;101703.56;7351652;19;19925;-65
2022/12/18 04:14:42;;;;;;;;;;;;;;;3.31;86.08;101698.44;7352467;19;19919;-66
2022/12/18 04:17:09;;;;;;;;;;;;;;;3.29;85.51;101707.25;7352734;19;19919;-64
2022/12/18 04:19:36;;;;;;;;;;;;;;;3.30;85.80;101698.53;7351074;19;20435;-66
2022/12/18 04:22:03;;;;;;;;;;;;;;;3.28;85.88;101700.38;7352076;19;20037;-65
2022/12/18 04:24:30;;;;;;;;;;;;;;;3.29;86.11;101696.84;7353368;19;20231;-67
2022/12/18 04:26:57;;;;;;;;;;;;;;;3.25;86.08;101679.75;7354885;19;19918;-65
2022/12/18 04:29:24;;;;;;;;;;;;;;;3.25;86.22;101692.75;7352463;19;19959;-65
2022/12/18 04:31:51;;;;;;;;;;;;;;;3.24;86.01;101688.47;7352996;19;20648;-66
2022/12/18 04:34:18;;;;;;;;;;;;;;;3.23;86.07;101686.78;7351849;19;19934;-64
2022/12/18 04:36:45;;;;;;;;;;;;;;;3.22;86.04;101683.34;7351598;19;19919;-66
2022/12/18 04:39:12;;;;;;;;;;;;;;;3.23;86.29;101673.78;7352263;19;20340;-66
2022/12/18 04:41:39;;;;;;;;;;;;;;;3.22;86.31;101679.91;7353969;19;19934;-65
2022/12/18 04:44:06;;;;;;;;;;;;;;;3.22;86.75;101679.91;7351159;19;20834;-66
2022/12/18 04:46:32;;;;;;;;;;;;;;;3.22;87.42;101679.91;7332390;19;19926;-66
2022/12/18 04:48:59;;;;;;;;;;;;;;;3.21;87.52;101675.63;7344243;19;19937;-65
2022/12/18 04:51:26;;;;;;;;;;;;;;;3.22;87.99;101672.09;7349791;19;19938;-65
2022/12/18 04:53:53;;;;;;;;;;;;;;;3.22;87.81;101669.50;7358844;19;20317;-64
2022/12/18 04:56:20;;;;;;;;;;;;;;;3.23;88.13;101673.78;7358849;19;20229;-65
2022/12/18 04:58:47;;;;;;;;;;;;;;;3.22;88.11;101666.91;7359260;19;19943;-66
2022/12/18 05:01:15;;;;;;;;;;;;;;;3.20;88.31;101651.38;7357408;19;19947;-65
2022/12/18 05:03:42;;;;;;;;;;;;;;;3.19;88.02;101652.31;7358055;19;19923;-66
2022/12/18 05:06:10;;;;;;;;;;;;;;;3.18;88.17;101640.25;7356928;19;19929;-65
2022/12/18 05:08:37;;;;;;;;;;;;;;;3.18;88.41;101631.59;7360413;19;20179;-66
2022/12/18 05:11:05;;;;;;;;;;;;;;;3.19;88.98;101617.69;7360470;19;19926;-65
2022/12/18 05:13:32;;;;;;;;;;;;;;;3.19;88.74;101620.28;7359172;19;20265;-65
2022/12/18 05:15:59;;;;;;;;;;;;;;;3.19;88.72;101620.28;7355727;19;19938;-65
2022/12/18 05:18:26;;;;;;;;;;;;;;;3.17;88.74;101616.94;7359975;19;20439;-64
2022/12/18 05:20:54;;;;;;;;;;;;;;;3.15;88.72;101601.41;7357039;19;19933;-64
2022/12/18 05:23:22;;;;;;;;;;;;;;;3.14;88.81;101598.91;7356355;19;19922;-64
2022/12/18 05:25:51;;;;;;;;;;;;;;;3.13;88.86;101598.06;7358223;19;19962;-65
2022/12/18 05:28:18;;;;;;;;;;;;;;;3.14;89.14;101589.34;7359569;19;19926;-66
2022/12/18 05:30:48;;;;;;;;;;;;;;;3.13;89.11;101589.44;7360394;19;19918;-65
2022/12/18 05:33:15;;;;;;;;;;;;;;;3.13;89.08;101589.44;7357548;19;19926;-66
2022/12/18 05:35:42;;;;;;;;;;;;;;;3.08;89.19;101589.69;7358750;19;20026;-64
2022/12/18 05:38:08;;;;;;;;;;;;;;;3.12;89.53;101590.34;7356454;19;19926;-64
2022/12/18 05:40:36;;;;;;;;;;;;;;;3.13;89.74;101579.03;7355965;19;19930;-65
2022/12/18 05:43:03;;;;;;;;;;;;;;;3.13;89.65;101571.22;7359020;19;19923;-66
2022/12/18 05:45:30;;;;;;;;;;;;;;;3.12;89.22;101578.19;7341517;19;19915;-65
2022/12/18 05:47:57;;;;;;;;;;;;;;;3.12;89.29;101567.78;7351860;19;20009;-65
2022/12/18 05:50:24;;;;;;;;;;;;;;;3.11;89.44;101560.91;7350681;19;19923;-65
2022/12/18 05:52:51;;;;;;;;;;;;;;;3.12;89.45;101577.34;7355741;19;19927;-64
2022/12/18 05:55:17;;;;;;;;;;;;;;;3.12;89.94;101580.78;7356078;19;19931;-64
2022/12/18 05:57:44;;;;;;;;;;;;;;;3.13;89.79;101574.69;7357123;19;20016;-66
2022/12/18 06:00:12;;;;;;;;;;;;;;;3.15;89.78;101556.41;7355971;19;19935;-64
2022/12/18 06:02:39;;;;;;;;;;;;;;;3.18;90.39;101553.63;7356014;19;20039;-65
2022/12/18 06:05:06;;;;;;;;;;;;;;;3.21;90.40;101559.47;7356202;19;19922;-65
2022/12/18 06:07:33;;;;;;;;;;;;;;;3.21;89.73;101561.22;7357389;19;19923;-66
2022/12/18 06:10:00;;;;;;;;;;;;;;;3.25;90.04;101545.34;7355293;19;19915;-66
2022/12/18 06:12:27;;;;;;;;;;;;;;;3.25;90.28;101528.94;7356861;19;19927;-65
2022/12/18 06:14:54;;;;;;;;;;;;;;;3.27;89.94;101527.91;7358043;19;19926;-66
2022/12/18 06:17:21;;;;;;;;;;;;;;;3.28;90.04;101537.41;7356117;19;19919;-66
2022/12/18 06:19:48;;;;;;;;;;;;;;;3.33;90.10;101544.94;7357421;19;19927;-65
2022/12/18 06:22:14;;;;;;;;;;;;;;;3.35;89.95;101535.28;7355485;19;20719;-65
2022/12/18 06:24:41;;;;;;;;;;;;;;;3.34;89.38;101533.63;7354731;19;19955;-64
2022/12/18 06:27:08;;;;;;;;;;;;;;;3.35;89.32;101514.50;7359566;19;20328;-64
2022/12/18 06:29:35;;;;;;;;;;;;;;;3.35;88.99;101502.31;7357892;19;19943;-65
2022/12/18 06:32:02;;;;;;;;;;;;;;;3.37;89.14;101503.06;7357004;19;19923;-64
2022/12/18 06:34:29;;;;;;;;;;;;;;;3.42;89.45;101494.97;7354377;19;19991;-65
2022/12/18 06:36:56;;;;;;;;;;;;;;;3.40;88.90;101491.66;7352009;19;19926;-67
2022/12/18 06:39:23;;;;;;;;;;;;;;;3.43;89.08;101484.50;7356477;19;20425;-64
2022/12/18 06:41:50;;;;;;;;;;;;;;;3.49;89.16;101482.47;7357780;19;20217;-65
2022/12/18 06:44:16;;;;;;;;;;;;;;;3.50;88.80;101482.38;7353305;19;19947;-64
2022/12/18 06:46:43;;;;;;;;;;;;;;;3.49;88.88;101470.28;7357306;19;19918;-66
2022/12/18 06:49:10;;;;;;;;;;;;;;;3.50;88.74;101471.97;7357498;19;19944;-65
2022/12/18 06:51:37;;;;;;;;;;;;;;;3.50;88.36;101474.56;7352250;19;19915;-65
2022/12/18 06:54:04;;;;;;;;;;;;;;;3.53;88.81;101476.97;7354588;19;19992;-65
2022/12/18 06:56:31;;;;;;;;;;;;;;;3.54;88.67;101486.47;7356611;19;19926;-65
2022/12/18 06:58:58;;;;;;;;;;;;;;;3.57;88.64;101491.47;7357239;19;19919;-66
2022/12/18 07:01:25;;;;;;;;;;;;;;;3.56;88.13;101487.19;7357989;19;19923;-66
2022/12/18 07:03:53;;;;;;;;;;;;;;;3.58;88.30;101485.34;7355482;19;19919;-67
2022/12/18 07:06:21;;;;;;;;;;;;;;;3.62;88.22;101478.19;7352728;19;19929;-65
2022/12/18 07:08:49;;;;;;;;;;;;;;;3.62;88.64;101473.81;7353318;19;19929;-65
2022/12/18 07:11:16;;;;;;;;;;;;;;;3.59;87.58;101466.22;7355607;19;19923;-64
2022/12/18 07:13:43;;;;;;;;;;;;;;;3.60;87.73;101459.25;7358344;19;20353;-65
2022/12/18 07:16:12;;;;;;;;;;;;;;;3.60;87.62;101454.06;7354255;19;19942;-65
2022/12/18 07:18:48;;;;;;;;;;;;;;;3.64;87.49;101458.13;7353534;19;19941;-65
2022/12/18 07:21:16;;;;;;;;;;;;;;;3.65;87.54;101460.66;7351060;19;19927;-66
2022/12/18 07:23:43;;;;;;;;;;;;;;;3.70;87.89;101463.81;7352447;19;19915;-65
2022/12/18 07:26:11;;;;;;;;;;;;;;;3.67;86.93;101463.13;7353928;19;20618;-66
2022/12/18 07:28:39;;;;;;;;;;;;;;;3.65;87.10;101458.06;7357149;19;19934;-66
2022/12/18 07:31:09;;;;;;;;;;;;;;;3.66;86.86;101461.47;7354838;19;19922;-66
2022/12/18 07:33:41;;;;;;;;;;;;;;;3.68;87.44;101457.84;7354235;19;20200;-66
2022/12/18 07:36:09;;;;;;;;;;;;;;;3.67;87.04;101455.34;7351133;19;20499;-66
2022/12/18 07:38:37;;;;;;;;;;;;;;;3.68;86.81;101451.81;7352675;19;19947;-66
2022/12/18 07:41:05;;;;;;;;;;;;;;;3.68;86.75;101444.84;7354084;19;19944;-65
2022/12/18 07:43:33;;;;;;;;;;;;;;;3.67;86.19;101447.53;7355650;19;19947;-66
2022/12/18 07:46:00;;;;;;;;;;;;;;;3.68;86.15;101437.03;7355656;19;19918;-65
2022/12/18 07:48:27;;;;;;;;;;;;;;;3.69;86.08;101437.88;7355989;19;20333;-66
2022/12/18 07:50:58;;;;;;;;;;;;;;;3.68;85.91;101434.44;7351553;19;19919;-66
2022/12/18 07:53:26;;;;;;;;;;;;;;;3.68;85.88;101424.03;7354699;19;19933;-66
2022/12/18 07:55:56;;;;;;;;;;;;;;;3.72;86.29;101420.31;7356242;19;20036;-66
2022/12/18 07:58:44;;;;;;;;;;;;;;;3.74;86.27;101407.22;7353977;19;19919;-66
2022/12/18 08:01:13;;;;;;;;;;;;;;;3.76;85.89;101413.97;7353700;19;19927;-65
2022/12/18 08:03:40;;;;;;;;;;;;;;;3.78;86.17;101399.13;7355731;19;20278;-65
2022/12/18 08:06:09;;;;;;;;;;;;;;;3.81;86.58;101406.72;7352775;19;19930;-66
2022/12/18 08:08:36;;;;;;;;;;;;;;;3.81;86.19;101413.69;7357144;19;19930;-65
2022/12/18 08:11:03;;;;;;;;;;;;;;;3.81;85.95;101409.31;7354006;19;19918;-65
2022/12/18 08:13:29;;;;;;;;;;;;;;;3.83;85.82;101417.88;7356470;19;20039;-66
2022/12/18 08:15:58;;;;;;;;;;;;;;;3.87;85.67;101410.72;7352570;19;19925;-64
2022/12/18 08:18:25;;;;;;;;;;;;;;;3.84;85.34;101419.56;7355837;19;19931;-66
2022/12/18 08:20:52;;;;;;;;;;;;;;;3.86;85.40;101425.47;7350335;19;19911;-65
2022/12/18 08:23:19;;;;;;;;;;;;;;;3.86;85.75;101437.66;7351903;19;19918;-65
2022/12/18 08:25:46;;;;;;;;;;;;;;;3.84;85.50;101435.16;7354660;19;19914;-64
2022/12/18 08:28:13;;;;;;;;;;;;;;;3.83;85.64;101423.09;7358957;19;20077;-65
2022/12/18 08:30:39;;;;;;;;;;;;;;;3.85;85.77;101428.22;7359234;19;19926;-64
2022/12/18 08:33:07;;;;;;;;;;;;;;;3.84;85.32;101424.75;7358372;19;19982;-64
2022/12/18 08:35:36;;;;;;;;;;;;;;;3.86;85.71;101430.69;7357330;19;19919;-65
2022/12/18 08:38:10;;;;;;;;;;;;;;;3.86;85.92;101430.69;7358716;19;19938;-64
2022/12/18 08:40:37;;;;;;;;;;;;;;;3.89;85.94;101440.09;7361901;19;19911;-66
2022/12/18 08:45:34;;;;;;;;;;;;;;;3.87;85.32;101424.56;7360037;19;19919;-66
2022/12/18 08:48:01;;;;;;;;;;;;;;;3.90;85.36;101414.91;7357950;19;19923;-64
2022/12/18 08:50:28;;;;;;;;;;;;;;;3.90;85.24;101418.34;7358661;19;19981;-64
2022/12/18 08:52:57;;;;;;;;;;;;;;;3.92;85.73;101426.88;7358677;19;19922;-64
2022/12/18 08:55:24;;;;;;;;;;;;;;;3.95;85.60;101428.47;7361232;19;20019;-68
2022/12/18 08:57:51;;;;;;;;;;;;;;;3.97;85.03;101432.63;7360769;19;19926;-65
2022/12/18 09:00:18;;;;;;;;;;;;;;;4.00;84.80;101418.59;7358265;19;19923;-65
2022/12/18 09:02:45;;;;;;;;;;;;;;;4.02;85.39;101419.31;7360430;19;19930;-66
2022/12/18 09:05:12;;;;;;;;;;;;;;;4.07;85.37;101422.47;7354448;19;19929;-65
2022/12/18 09:07:39;;;;;;;;;;;;;;;4.07;85.15;101415.50;7359869;19;20377;-64
2022/12/18 09:10:06;;;;;;;;;;;;;;;4.11;85.22;101414.41;7359854;19;19929;-65
2022/12/18 09:12:33;;;;;;;;;;;;;;;4.14;85.16;101424.59;7357999;19;20508;-64
2022/12/18 09:15:00;;;;;;;;;;;;;;;4.18;85.02;101422.63;7360592;19;19926;-65
2022/12/18 09:17:27;;;;;;;;;;;;;;;4.20;84.89;101416.41;7357872;19;19914;-66
2022/12/18 09:19:54;;;;;;;;;;;;;;;4.21;84.98;101425.91;7358496;19;21559;-64
2022/12/18 09:22:21;;;;;;;;;;;;;;;4.23;85.01;101431.84;7358930;19;19935;-64
2022/12/18 09:24:48;;;;;;;;;;;;;;;4.23;84.46;101412.75;7357935;19;19919;-66
2022/12/18 09:27:15;;;;;;;;;;;;;;;4.23;84.36;101413.59;7357881;19;21545;-65
2022/12/18 09:29:42;;;;;;;;;;;;;;;4.24;84.48;101414.44;7359291;19;19915;-64
2022/12/18 09:32:09;;;;;;;;;;;;;;;4.24;84.30;101411.84;7356857;19;20266;-64
2022/12/18 09:34:36;;;;;;;;;;;;;;;4.27;84.87;101417.69;7356968;19;19926;-64
2022/12/18 09:37:03;;;;;;;;;;;;;;;4.28;85.01;101432.38;7356817;19;19915;-64
2022/12/18 09:39:30;;;;;;;;;;;;;;;4.33;85.21;101442.50;7354969;19;19923;-64
2022/12/18 09:41:58;;;;;;;;;;;;;;;4.35;84.89;101447.63;7359982;19;19937;-64
2022/12/18 09:44:25;;;;;;;;;;;;;;;4.36;85.12;101433.66;7355889;19;19923;-65
2022/12/18 09:46:55;;;;;;;;;;;;;;;4.39;85.31;101436.91;7356013;19;19930;-66
2022/12/18 09:49:24;;;;;;;;;;;;;;;4.41;85.37;101432.44;7358841;19;19933;-65
2022/12/18 09:51:54;;;;;;;;;;;;;;;4.46;85.50;101425.16;7356363;19;20374;-65
2022/12/18 09:54:24;;;;;;;;;;;;;;;4.49;85.20;101421.50;7359660;19;19937;-64
2022/12/18 09:56:52;;;;;;;;;;;;;;;4.52;84.96;101429.16;7354849;19;19963;-64
2022/12/18 09:59:22;;;;;;;;;;;;;;;4.54;84.50;101427.25;7354084;19;19927;-65
2022/12/18 10:01:50;;;;;;;;;;;;;;;4.55;84.34;101437.59;7353869;19;19919;-64
2022/12/18 10:04:17;;;;;;;;;;;;;;;4.58;84.45;101442.59;7357961;19;19947;-65
2022/12/18 10:06:45;;;;;;;;;;;;;;;4.57;84.42;101438.31;7353565;19;19923;-65
2022/12/18 10:09:19;;;;;;;;;;;;;;;4.56;84.23;101435.81;7357864;19;19927;-65
2022/12/18 10:11:49;;;;;;;;;;;;;;;4.56;84.71;101431.47;7356493;19;19922;-64
2022/12/18 10:14:19;;;;;;;;;;;;;;;4.57;84.84;101430.50;7358402;19;19919;-64
2022/12/18 10:16:46;;;;;;;;;;;;;;;4.61;84.66;101429.38;7358234;19;19937;-66
2022/12/18 10:19:17;;;;;;;;;;;;;;;4.66;84.73;101431.69;7358447;19;20108;-65
2022/12/18 10:21:45;;;;;;;;;;;;;;;4.66;84.64;101418.66;7354594;19;20186;-65
2022/12/18 10:24:15;;;;;;;;;;;;;;;4.69;84.77;101418.44;7358408;19;19926;-64
2022/12/18 10:26:43;;;;;;;;;;;;;;;4.70;84.34;101414.91;7358043;19;20556;-64
2022/12/18 10:29:11;;;;;;;;;;;;;;;4.73;84.76;101418.16;7355335;19;22393;-66
2022/12/18 10:31:38;;;;;;;;;;;;;;;4.78;84.30;101411.78;7355736;19;19922;-64
2022/12/18 10:34:09;;;;;;;;;;;;;;;4.81;84.03;101417.66;7359769;19;19963;-64
2022/12/18 10:36:36;;;;;;;;;;;;;;;4.85;84.28;101407.84;7354874;19;19930;-64
2022/12/18 10:39:06;;;;;;;;;;;;;;;4.88;83.92;101399.81;7357253;19;19941;-64
2022/12/18 10:41:33;;;;;;;;;;;;;;;4.89;84.18;101397.13;7358112;19;19930;-63
2022/12/18 10:44:03;;;;;;;;;;;;;;;4.92;84.37;101383.91;7355964;19;19918;-64
2022/12/18 10:46:30;;;;;;;;;;;;;;;4.94;84.27;101379.41;7356677;19;19922;-64
2022/12/18 10:48:57;;;;;;;;;;;;;;;4.97;83.65;101381.81;7356447;19;21212;-65
2022/12/18 10:51:27;;;;;;;;;;;;;;;4.98;83.33;101361.75;7349776;19;19918;-65
2022/12/18 10:53:59;;;;;;;;;;;;;;;5.02;83.41;101358.88;7358860;19;20295;-65
2022/12/18 10:56:28;;;;;;;;;;;;;;;5.05;83.89;101356.03;7353917;19;19933;-64
2022/12/18 10:58:56;;;;;;;;;;;;;;;5.07;83.90;101329.88;7355287;19;20245;-64
2022/12/18 11:01:23;;;;;;;;;;;;;;;5.08;83.50;101342.78;7352618;19;19919;-64
2022/12/18 11:03:51;;;;;;;;;;;;;;;5.10;83.74;101320.06;7353573;19;20024;-64
2022/12/18 11:06:25;;;;;;;;;;;;;;;5.10;83.27;101322.66;7353523;19;19930;-65
2022/12/18 11:08:55;;;;;;;;;;;;;;;5.09;82.29;101310.56;7356586;19;19919;-65
2022/12/18 11:11:22;;;;;;;;;;;;;;;5.11;82.76;101303.47;7355719;19;20215;-65
2022/12/18 11:13:57;;;;;;;;;;;;;;;5.15;82.92;101304.09;7357812;19;19927;-64
2022/12/18 11:16:24;;;;;;;;;;;;;;;5.16;82.61;101298.78;7355137;19;19929;-65
2022/12/18 11:18:52;;;;;;;;;;;;;;;5.16;82.27;101311.81;7357512;19;20035;-64
2022/12/18 11:21:19;;;;;;;;;;;;;;;5.18;82.71;101305.66;7352714;19;19930;-66
2022/12/18 11:23:48;;;;;;;;;;;;;;;5.21;83.74;101305.44;7354938;19;19922;-65
2022/12/18 11:26:17;;;;;;;;;;;;;;;5.22;84.41;101294.06;7353248;19;20527;-65
2022/12/18 11:28:46;;;;;;;;;;;;;;;5.23;84.98;101280.94;7354466;19;19930;-63
2022/12/18 11:31:16;;;;;;;;;;;;;;;5.21;84.72;101281.97;7351101;19;19926;-64
2022/12/18 11:33:46;;;;;;;;;;;;;;;5.18;85.23;101271.75;7354268;19;19923;-65
2022/12/18 11:36:36;;;;;;;;;;;;;;;5.18;85.70;101270.00;7348997;19;19915;-65
2022/12/18 11:39:10;;;;;;;;;;;;;;;5.18;86.51;101260.38;7353056;19;19919;-64
2022/12/18 11:44:15;;;;;;;;;;;;;;;5.18;87.76;101252.53;7353372;19;19919;-65
2022/12/18 11:46:47;;;;;;;;;;;;;;;5.18;88.11;101251.75;7352296;19;19953;-64
2022/12/18 11:49:20;;;;;;;;;;;;;;;5.15;88.41;101257.16;7354284;19;20511;-65
2022/12/18 11:51:51;;;;;;;;;;;;;;;5.17;88.72;101252.66;7349295;19;21675;-64
2022/12/18 11:54:18;;;;;;;;;;;;;;;5.18;89.02;101246.53;7352306;19;19919;-64
2022/12/18 11:56:48;;;;;;;;;;;;;;;5.18;89.06;101243.91;7352794;19;20344;-66
2022/12/18 11:59:17;;;;;;;;;;;;;;;5.20;89.75;101235.97;7355279;19;19930;-66
2022/12/18 12:01:44;;;;;;;;;;;;;;;5.20;89.66;101233.34;7356840;19;19915;-64
2022/12/18 12:04:14;;;;;;;;;;;;;;;5.18;89.74;101220.44;7360909;19;19915;-66
2022/12/18 12:06:41;;;;;;;;;;;;;;;5.18;89.77;101228.25;7359266;19;20439;-64
2022/12/18 12:09:11;;;;;;;;;;;;;;;5.16;89.60;101220.53;7360443;19;20003;-65
2022/12/18 12:11:41;;;;;;;;;;;;;;;5.17;89.71;101216.16;7363392;19;19938;-66
2022/12/18 12:14:11;;;;;;;;;;;;;;;5.21;89.95;101214.16;7360642;19;19954;-64
2022/12/18 12:16:40;;;;;;;;;;;;;;;5.20;90.17;101202.88;7361741;19;20360;-65
2022/12/18 12:19:10;;;;;;;;;;;;;;;5.20;90.70;101184.63;7360177;19;19926;-65
2022/12/18 12:21:40;;;;;;;;;;;;;;;5.23;91.16;101183.59;7358448;19;20421;-65
2022/12/18 12:24:08;;;;;;;;;;;;;;;5.23;91.74;101166.19;7358788;19;19937;-64
2022/12/18 12:26:39;;;;;;;;;;;;;;;5.24;91.79;101157.38;7351575;19;19915;-64
2022/12/18 12:29:09;;;;;;;;;;;;;;;5.24;92.06;101149.56;7361614;19;19910;-64
2022/12/18 12:31:39;;;;;;;;;;;;;;;5.27;92.56;101151.97;7360904;19;19987;-64
2022/12/18 12:34:06;;;;;;;;;;;;;;;5.28;92.65;101139.75;7358633;19;19926;-65
2022/12/18 12:36:36;;;;;;;;;;;;;;;5.29;93.05;101141.41;7354929;19;19946;-64
2022/12/18 12:39:08;;;;;;;;;;;;;;;5.29;92.93;101137.00;7360216;19;19933;-64
2022/12/18 12:44:08;;;;;;;;;;;;;;;5.36;93.32;101138.25;7360350;19;19922;-64
2022/12/18 12:46:37;;;;;;;;;;;;;;;5.37;93.40;101141.69;7357051;19;19926;-64
2022/12/18 12:49:10;;;;;;;;;;;;;;;5.40;93.50;101154.50;7358672;19;20491;-66
2022/12/18 12:51:41;;;;;;;;;;;;;;;5.41;93.88;101135.31;7356729;19;20186;-64
2022/12/18 12:54:11;;;;;;;;;;;;;;;5.44;94.00;101130.69;7360382;19;19930;-65
2022/12/18 12:56:41;;;;;;;;;;;;;;;5.44;94.25;101135.06;7359674;19;21029;-67
2022/12/18 12:59:11;;;;;;;;;;;;;;;5.43;94.03;101118.59;7364053;19;19934;-64
2022/12/18 13:01:41;;;;;;;;;;;;;;;5.47;94.09;101119.22;7360215;19;19938;-65
2022/12/18 13:04:12;;;;;;;;;;;;;;;5.45;94.44;101119.31;7360276;19;19974;-64
2022/12/18 13:06:48;;;;;;;;;;;;;;;5.45;94.53;101118.47;7354149;19;20743;-64